Map

Track Data

SID SEASON NUMBER BASIN SUBBASIN NAME ISO_TIME NATURE LAT LON WMO_WIND WMO_PRES WMO_AGENCY TRACK_TYPE DIST2LAND LANDFALL IFLAG USA_AGENCY USA_ATCF_ID USA_LAT USA_LON USA_RECORD USA_STATUS USA_WIND USA_PRES USA_SSHS USA_R34_NE USA_R34_SE USA_R34_SW USA_R34_NW USA_R50_NE USA_R50_SE USA_R50_SW USA_R50_NW USA_R64_NE USA_R64_SE USA_R64_SW USA_R64_NW USA_POCI USA_ROCI USA_RMW USA_EYE TOKYO_LAT TOKYO_LON TOKYO_GRADE TOKYO_WIND TOKYO_PRES TOKYO_R50_DIR TOKYO_R50_LONG TOKYO_R50_SHORT TOKYO_R30_DIR TOKYO_R30_LONG TOKYO_R30_SHORT TOKYO_LAND CMA_LAT CMA_LON CMA_CAT CMA_WIND CMA_PRES HKO_LAT HKO_LON HKO_CAT HKO_WIND HKO_PRES NEWDELHI_LAT NEWDELHI_LON NEWDELHI_GRADE NEWDELHI_WIND NEWDELHI_PRES NEWDELHI_CI NEWDELHI_DP NEWDELHI_POCI REUNION_LAT REUNION_LON REUNION_TYPE REUNION_WIND REUNION_PRES REUNION_TNUM REUNION_CI REUNION_RMW REUNION_R34_NE REUNION_R34_SE REUNION_R34_SW REUNION_R34_NW REUNION_R50_NE REUNION_R50_SE REUNION_R50_SW REUNION_R50_NW REUNION_R64_NE REUNION_R64_SE REUNION_R64_SW REUNION_R64_NW BOM_LAT BOM_LON BOM_TYPE BOM_WIND BOM_PRES BOM_TNUM BOM_CI BOM_RMW BOM_R34_NE BOM_R34_SE BOM_R34_SW BOM_R34_NW BOM_R50_NE BOM_R50_SE BOM_R50_SW BOM_R50_NW BOM_R64_NE BOM_R64_SE BOM_R64_SW BOM_R64_NW BOM_ROCI BOM_POCI BOM_EYE BOM_POS_METHOD BOM_PRES_METHOD NADI_LAT NADI_LON NADI_CAT NADI_WIND NADI_PRES WELLINGTON_LAT WELLINGTON_LON WELLINGTON_WIND WELLINGTON_PRES DS824_LAT DS824_LON DS824_STAGE DS824_WIND DS824_PRES TD9636_LAT TD9636_LON TD9636_STAGE TD9636_WIND TD9636_PRES TD9635_LAT TD9635_LON TD9635_WIND TD9635_PRES TD9635_ROCI NEUMANN_LAT NEUMANN_LON NEUMANN_CLASS NEUMANN_WIND NEUMANN_PRES MLC_LAT MLC_LON MLC_CLASS MLC_WIND MLC_PRES USA_GUST BOM_GUST BOM_GUST_PER REUNION_GUST REUNION_GUST_PER USA_SEAHGT USA_SEARAD_NE USA_SEARAD_SE USA_SEARAD_SW USA_SEARAD_NW STORM_SPEED STORM_DIR
1996291N17168 1996 101 WP MM CARLO 1996-10-17 00:00:00 NR 17.0000 168.000 main 2874 2819 O_____________ jtwc_wp WP331996 17.0000 168.000 15 -1 11 217
1996291N17168 1996 101 WP MM CARLO 1996-10-17 03:00:00 NR 16.5726 167.662 main 2819 2757 P_____________ WP331996 16.5726 167.662 15 -1 10 220
1996291N17168 1996 101 WP MM CARLO 1996-10-17 06:00:00 NR 16.2000 167.300 main 2757 2704 O_____________ jtwc_wp WP331996 16.2000 167.300 15 -1 10 229
1996291N17168 1996 101 WP MM CARLO 1996-10-17 09:00:00 NR 15.9198 166.888 main 2704 2654 P_____________ WP331996 15.9198 166.888 15 -1 10 240
1996291N17168 1996 101 WP MM CARLO 1996-10-17 12:00:00 NR 15.7000 166.400 main 2654 2597 O_____________ jtwc_wp WP331996 15.7000 166.400 15 -1 11 247
1996291N17168 1996 101 WP MM CARLO 1996-10-17 15:00:00 NR 15.4776 165.815 main 2597 2541 P_____________ WP331996 15.4776 165.815 15 -1 12 251
1996291N17168 1996 101 WP MM CARLO 1996-10-17 18:00:00 NR 15.3000 165.200 main 2541 2500 O_____________ jtwc_wp WP331996 15.3000 165.200 15 -1 12 255
1996291N17168 1996 101 WP MM CARLO 1996-10-17 21:00:00 NR 15.1698 164.643 main 2494 2455 P_____________ WP331996 15.1698 164.643 15 -1 11 259
1996291N17168 1996 101 WP MM CARLO 1996-10-18 00:00:00 NR 15.1000 164.100 main 2455 2425 O_____________ jtwc_wp WP331996 15.1000 164.100 15 -1 10 265
1996291N17168 1996 101 WP MM CARLO 1996-10-18 03:00:00 NR 15.0847 163.573 main 2425 2391 P_____________ WP331996 15.0847 163.573 15 -1 11 270
1996291N17168 1996 101 WP MM CARLO 1996-10-18 06:00:00 NR 15.1000 163.000 main 2391 2351 O_____________ jtwc_wp WP331996 15.1000 163.000 15 -1 12 271
1996291N17168 1996 101 WP MM CARLO 1996-10-18 09:00:00 NR 15.1002 162.300 main 2351 2313 P_____________ WP331996 15.1002 162.300 15 -1 14 270
1996291N17168 1996 101 WP MM CARLO 1996-10-18 12:00:00 NR 15.1000 161.600 main 2313 2287 O_____________ jtwc_wp WP331996 15.1000 161.600 15 -1 12 269
1996291N17168 1996 101 WP MM CARLO 1996-10-18 15:00:00 NR 15.0767 161.080 main 2287 2257 P_____________ WP331996 15.0767 161.080 12 -1 11 270
1996291N17168 1996 101 WP MM CARLO 1996-10-18 18:00:00 NR 15.1000 160.500 main 2257 2227 O_____________ jtwc_wp WP331996 15.1000 160.500 10 -1 14 276
1996291N17168 1996 101 WP MM CARLO 1996-10-18 21:00:00 NR 15.2202 159.653 main 2227 2205 P_____________ WP331996 15.2202 159.653 12 -1 18 280
1996291N17168 1996 101 WP MM CARLO 1996-10-19 00:00:00 NR 15.4000 158.700 main 2202 2179 O_____________ jtwc_wp WP331996 15.4000 158.700 15 -1 18 281
1996291N17168 1996 101 WP MM CARLO 1996-10-19 03:00:00 NR 15.5772 157.792 main 2186 2171 P_____________ WP331996 15.5772 157.792 17 -1 18 283
1996291N17168 1996 101 WP MM CARLO 1996-10-19 06:00:00 NR 15.8000 156.900 main 2175 2171 O_____________ jtwc_wp WP331996 15.8000 156.900 20 -1 18 287
1996291N17168 1996 101 WP MM CARLO 1996-10-19 09:00:00 NR 16.0997 156.028 main 2179 2176 P_____________ WP331996 16.0997 156.028 20 -1 17 290
1996291N17168 1996 101 WP MM CARLO 1996-10-19 12:00:00 NR 16.4000 155.200 main 2191 2188 O_____________ jtwc_wp WP331996 16.4000 155.200 20 -1 16 289
1996291N17168 1996 101 WP MM CARLO 1996-10-19 15:00:00 NR 16.6296 154.435 main 2195 2195 P_____________ WP331996 16.6296 154.435 20 -1 15 286
1996291N17168 1996 101 WP MM CARLO 1996-10-19 18:00:00 NR 16.8000 153.700 main 2205 2201 O_____________ jtwc_wp WP331996 16.8000 153.700 20 -1 15 281
1996291N17168 1996 101 WP MM CARLO 1996-10-19 21:00:00 NR 16.9078 152.890 main 2206 2197 P_____________ WP331996 16.9078 152.890 20 -1 13 275
1996291N17168 1996 101 WP MM CARLO 1996-10-20 00:00:00 TS 16.9000 152.380 1008 tokyo main 2197 2192 OO____________ jtwc_wp WP331996 17.0000 152.200 20 -1 16.5000 153.100 2 1008 0 0 0 8 277
1996291N17168 1996 101 WP MM CARLO 1996-10-20 03:00:00 TS 17.0031 152.078 main 2200 2198 PP____________ WP331996 17.1345 151.790 20 -1 16.7402 152.655 2 1007 0 0 6 292
1996291N17168 1996 101 WP MM CARLO 1996-10-20 06:00:00 TS 17.1286 151.800 1006 tokyo main 2204 2201 OO____________ jtwc_wp WP331996 17.3000 151.500 20 -1 16.9000 152.200 2 1006 0 0 0 7 289
1996291N17168 1996 101 WP MM CARLO 1996-10-20 09:00:00 TS 17.2212 151.429 main 2205 2203 PP____________ WP331996 17.5000 151.135 20 -1 16.9423 151.722 2 1006 0 0 8 286
1996291N17168 1996 101 WP MM CARLO 1996-10-20 12:00:00 TS 17.3500 151.000 1006 tokyo main 2219 2213 OO____________ jtwc_wp WP331996 17.7000 150.800 20 -1 17.0000 151.200 2 1006 0 0 0 9 290
1996291N17168 1996 101 WP MM CARLO 1996-10-20 15:00:00 TS 17.5276 150.549 main 2208 2174 PP____________ WP331996 17.8499 150.535 20 -1 17.2053 150.563 2 1006 0 0 9 296
1996291N17168 1996 101 WP MM CARLO 1996-10-20 18:00:00 TS 17.7500 150.150 1006 tokyo main 2164 2130 OO____________ jtwc_wp WP331996 18.0000 150.300 20 -1 17.5000 150.000 2 1006 0 0 0 8 307
1996291N17168 1996 101 WP MM CARLO 1996-10-20 21:00:00 TS 18.0173 149.870 main 2130 2091 PP____________ WP331996 18.1925 150.050 22 -1 17.8422 149.690 2 1006 0 0 8 323
1996291N17168 1996 101 WP MM CARLO 1996-10-21 00:00:00 TS 18.3556 149.667 1006 tokyo main 2080 2047 OOO___________ jtwc_wp WP331996 18.4000 149.800 25 -1 18.2000 149.500 2 1006 0 0 0 18.8000 149.800 1 23 1004 8 324
1996291N17168 1996 101 WP MM CARLO 1996-10-21 03:00:00 TS 18.6376 149.399 main 2047 2017 PPP___________ WP331996 18.6150 149.550 27 -1 18.5300 149.270 2 1005 0 0 18.8979 149.355 1 26 1003 7 314
1996291N17168 1996 101 WP MM CARLO 1996-10-21 06:00:00 TS 18.8333 149.150 1004 tokyo main 2017 1988 OOOO__________ jtwc_wp WP331996 18.8000 149.300 30 -1 18.8000 149.100 2 1004 0 0 0 19.0000 149.000 1 29 1002 18.6000 149.200 TD 30 1000 5 310
1996291N17168 1996 101 WP MM CARLO 1996-10-21 09:00:00 TS 18.9735 148.975 main 1988 1974 PPPP__________ WP331996 18.9225 149.035 32 -1 18.9800 149.020 2 1003 0 0 19.1073 148.785 1 29 1002 18.7950 149.143 TD 30 1000 4 312
1996291N17168 1996 101 WP MM CARLO 1996-10-21 12:00:00 TS 19.0800 148.860 1002 tokyo main 1974 1959 OOOO__________ jtwc_wp WP331996 19.0000 148.800 35 0 19.1000 149.000 2 1002 0 0 0 19.2000 148.600 1 29 1002 19.0000 149.100 TD 30 1000 3 316
1996291N17168 1996 101 WP MM CARLO 1996-10-21 15:00:00 TS 19.1862 148.759 main 1959 1940 PPPP__________ WP331996 19.0574 148.650 40 0 19.2075 149.007 2 1000 0 0 19.2651 148.308 1 29 1002 19.2150 149.072 TD 32 999 3 312
1996291N17168 1996 101 WP MM CARLO 1996-10-21 18:00:00 TS 19.2750 148.625 35 998 tokyo main 1940 1936 OOOO__________ jtwc_wp WP331996 19.1000 148.500 45 0 19.3000 149.000 3 35 998 0 9 100 100 0 19.3000 148.000 1 29 1002 19.4000 149.000 TS 35 998 3 298
1996291N17168 1996 101 WP MM CARLO 1996-10-21 21:00:00 TS 19.3450 148.444 main 1932 1913 PPPP__________ WP331996 19.1500 148.258 45 0 19.3998 148.967 3 35 997 0 9 110 110 19.3075 147.705 1 31 1001 19.5224 148.845 TS 35 998 4 288
1996291N17168 1996 101 WP MM CARLO 1996-10-22 00:00:00 TS 19.4000 148.225 35 996 tokyo main 1913 1894 OOOO__________ jtwc_wp WP331996 19.2000 148.000 45 0 19.5000 148.800 3 35 996 0 9 120 120 0 19.3000 147.500 2 34 1000 19.6000 148.600 TS 35 998 4 285
1996291N17168 1996 101 WP MM CARLO 1996-10-22 03:00:00 TS 19.4556 147.998 main 1894 1882 PPPP__________ WP331996 19.2499 147.800 47 0 19.6152 148.403 3 37 995 0 9 125 125 19.2924 147.500 2 34 997 19.6649 148.288 TS 37 996 5 282
1996291N17168 1996 101 WP MM CARLO 1996-10-22 06:00:00 TS 19.5000 147.725 40 994 tokyo main 1882 1870 OOOO__________ jtwc_wp WP331996 19.3000 147.600 50 0 19.7000 147.900 3 40 994 0 9 130 130 0 19.3000 147.500 2 34 995 19.7000 147.900 TS 40 994 6 277
1996291N17168 1996 101 WP MM CARLO 1996-10-22 09:00:00 TS 19.5231 147.396 main 1870 1855 PPPP__________ WP331996 19.3349 147.380 52 0 19.7149 147.442 3 40 994 0 9 130 130 19.3350 147.302 2 36 995 19.7075 147.457 TS 40 994 7 274
1996291N17168 1996 101 WP MM CARLO 1996-10-22 12:00:00 TS 19.5500 147.025 40 994 tokyo main 1845 1834 OOOO__________ jtwc_wp WP331996 19.4000 147.100 55 0 19.7000 147.000 3 40 994 0 9 130 130 0 19.4000 147.000 2 38 995 19.7000 147.000 TS 40 994 7 276
1996291N17168 1996 101 WP MM CARLO 1996-10-22 15:00:00 TS 19.5975 146.641 main 1830 1809 PPPP__________ WP331996 19.5350 146.723 57 0 19.6849 146.585 3 42 992 0 9 140 140 19.4925 146.673 2 41 992 19.6774 146.585 TS 42 992 7 280
1996291N17168 1996 101 WP MM CARLO 1996-10-22 18:00:00 TS 19.6750 146.250 45 990 tokyo main 1809 1785 OOOO__________ jtwc_wp WP331996 19.7000 146.300 60 0 19.7000 146.200 3 45 990 0 9 150 150 0 19.6000 146.300 2 44 990 19.7000 146.200 TS 45 990 8 283
1996291N17168 1996 101 WP MM CARLO 1996-10-22 21:00:00 TS 19.7757 145.847 main 1782 1762 PPPP__________ WP331996 19.8576 145.863 62 0 19.7550 145.820 3 47 987 0 9 150 150 19.6701 145.885 2 46 987 19.8200 145.820 TS 45 990 7 290
1996291N17168 1996 101 WP MM CARLO 1996-10-23 00:00:00 TS 19.9250 145.500 50 985 tokyo main 1762 1735 OOOO__________ jtwc_wp WP331996 20.0000 145.500 65 1 19.9000 145.500 4 50 985 0 9 150 150 0 19.8000 145.500 3 48 985 20.0000 145.500 TS 45 990 7 303
1996291N17168 1996 101 WP MM CARLO 1996-10-23 03:00:00 TS 20.1368 145.257 main 1735 1697 PPPP__________ WP331996 20.0849 145.305 72 1 20.1849 145.263 4 50 985 0 9 150 150 20.0924 145.198 3 48 985 20.1849 145.262 TS 47 987 6 320
1996291N17168 1996 101 WP MM CARLO 1996-10-23 06:00:00 TS 20.3750 145.100 50 985 tokyo main 1697 1672 OOOO__________ jtwc_wp WP331996 20.2000 145.200 80 1 20.5000 145.100 4 50 985 0 9 150 150 0 20.4000 145.000 3 48 985 20.4000 145.100 STS 50 985 5 330
1996291N17168 1996 101 WP MM CARLO 1996-10-23 09:00:00 TS 20.5668 144.992 main 1672 1648 PPPP__________ WP331996 20.4050 145.085 85 2 20.7000 144.977 4 52 982 0 9 165 165 20.5274 144.927 3 53 982 20.6350 144.977 STS 52 982 5 339
1996291N17168 1996 101 WP MM CARLO 1996-10-23 12:00:00 TS 20.8000 144.925 55 980 tokyo main 1648 1616 OOOO__________ jtwc_wp WP331996 20.7000 145.000 90 2 20.9000 144.900 4 55 980 9 40 40 9 180 180 0 20.7000 144.900 3 58 980 20.9000 144.900 STS 55 980 6 347
1996291N17168 1996 101 WP MM CARLO 1996-10-23 15:00:00 TS 21.1138 144.851 main 1616 1570 PPPP__________ WP331996 21.0550 144.942 95 2 21.1475 144.828 4 55 980 9 40 40 9 180 180 21.0975 144.800 3 63 975 21.1550 144.835 STS 57 977 7 351
1996291N17168 1996 101 WP MM CARLO 1996-10-23 18:00:00 TS 21.5250 144.800 55 980 tokyo main 1570 1516 OOOO__________ jtwc_wp WP331996 21.5000 144.900 100 3 21.5000 144.800 4 55 980 9 40 40 9 180 180 0 21.6000 144.700 4 68 970 21.5000 144.800 STS 60 975 9 355
1996291N17168 1996 101 WP MM CARLO 1996-10-23 21:00:00 TS 22.0269 144.767 main 1516 1452 PPPP__________ WP331996 22.0200 144.835 102 3 22.0050 144.835 4 60 975 9 50 50 9 190 190 22.0775 144.620 4 68 970 22.0050 144.778 STS 62 972 11 0
1996291N17168 1996 101 WP MM CARLO 1996-10-24 00:00:00 TS 22.6000 144.775 65 970 tokyo main 1452 1399 OOOO__________ jtwc_wp WP331996 22.6000 144.800 105 3 22.6000 144.900 5 65 970 9 60 60 9 200 200 0 22.6000 144.600 4 68 970 22.6000 144.800 T 65 970 12 3
1996291N17168 1996 101 WP MM CARLO 1996-10-24 03:00:00 TS 23.1756 144.829 main 1389 1329 PPPP__________ WP331996 23.1775 144.827 105 3 23.1775 144.943 5 67 967 9 70 70 9 210 210 23.1700 144.663 4 68 970 23.1775 144.885 T 67 967 12 7
1996291N17168 1996 101 WP MM CARLO 1996-10-24 06:00:00 TS 23.8000 144.925 70 965 tokyo main 1329 1270 OOOO__________ jtwc_wp WP331996 23.8000 144.900 105 3 23.8000 145.000 5 70 965 9 80 80 9 220 220 0 23.8000 144.800 4 68 970 23.8000 145.000 T 70 965 13 8
1996291N17168 1996 101 WP MM CARLO 1996-10-24 09:00:00 TS 24.4700 145.039 main 1260 1195 PPPP__________ WP331996 24.4700 144.985 100 3 24.4700 145.085 5 70 965 9 80 80 9 220 220 24.4701 144.992 4 68 970 24.4700 145.093 T 67 967 14 9
1996291N17168 1996 101 WP MM CARLO 1996-10-24 12:00:00 TS 25.2000 145.175 70 965 tokyo main 1195 1129 OOOO__________ jtwc_wp WP331996 25.2000 145.100 95 2 25.2000 145.200 5 70 965 9 80 80 9 220 220 0 25.2000 145.200 4 68 970 25.2000 145.200 T 65 970 15 9
1996291N17168 1996 101 WP MM CARLO 1996-10-24 15:00:00 TS 25.9830 145.299 main 1119 1049 PPPP__________ WP331996 25.9849 145.221 90 2 25.9849 145.320 5 67 967 9 70 70 9 210 210 25.9849 145.343 4 68 970 25.9774 145.313 T 65 970 16 9
1996291N17168 1996 101 WP MM CARLO 1996-10-24 18:00:00 TS 26.8000 145.475 65 970 tokyo main 1049 982 OOOO__________ jtwc_wp WP331996 26.8000 145.400 85 2 26.8000 145.500 5 65 970 9 60 60 9 200 200 0 26.8000 145.500 4 68 970 26.8000 145.500 T 65 970 17 13
1996291N17168 1996 101 WP MM CARLO 1996-10-24 21:00:00 TS 27.6030 145.729 main 982 929 PPPP__________ WP331996 27.5924 145.656 82 1 27.5924 145.763 5 62 972 9 55 55 9 190 190 27.5848 145.699 4 66 972 27.6424 145.798 T 62 972 17 18
1996291N17168 1996 101 WP MM CARLO 1996-10-25 00:00:00 TS 28.4250 146.075 60 975 tokyo main 929 874 OOOO__________ jtwc_wp WP331996 28.4000 146.000 80 1 28.4000 146.100 4 60 975 9 50 50 9 180 180 0 28.4000 146.000 4 64 975 28.5000 146.200 STS 60 975 18 21
1996291N17168 1996 101 WP MM CARLO 1996-10-25 03:00:00 TS 29.2815 146.480 main 871 831 PPPP__________ WP331996 29.2342 146.362 75 1 29.2496 146.449 4 57 977 9 45 45 9 170 170 29.2925 146.448 4 61 977 29.3499 146.663 STS 57 977 19 25
1996291N17168 1996 101 WP MM CARLO 1996-10-25 06:00:00 TS 30.1500 147.000 55 980 tokyo main 830 812 OOOO__________ jtwc_wp WP331996 30.1000 146.900 70 1 30.1000 146.900 4 55 980 9 40 40 9 160 160 0 30.2000 147.000 3 58 980 30.2000 147.200 STS 55 980 20 30
1996291N17168 1996 101 WP MM CARLO 1996-10-25 09:00:00 TS 31.0014 147.620 main 812 805 PPPP__________ WP331996 31.0007 147.739 65 1 30.8917 147.462 4 52 982 9 9 160 160 31.0639 147.527 3 53 982 31.0493 147.749 STS 52 982 21 35
1996291N17168 1996 101 WP MM CARLO 1996-10-25 12:00:00 TS 31.8500 148.375 50 985 tokyo main 810 810 OOOO__________ jtwc_wp WP331996 31.9000 148.700 60 0 31.7000 148.200 4 50 985 0 9 160 160 0 31.9000 148.200 3 48 985 31.9000 148.400 STS 50 985 22 39
1996291N17168 1996 101 WP MM CARLO 1996-10-25 15:00:00 TS 32.7031 149.238 main 831 831 PPPP__________ WP331996 32.7714 149.544 57 0 32.5919 149.111 4 50 985 0 9 180 180 32.6999 149.119 3 46 987 32.7493 149.177 STS 47 982 23 42
1996291N17168 1996 101 WP MM CARLO 1996-10-25 18:00:00 TS 33.5500 150.225 50 985 tokyo main 880 883 OOOO__________ jtwc_wp WP331996 33.6000 150.400 55 0 33.5000 150.200 4 50 985 0 9 200 200 0 33.5000 150.200 2 44 990 33.6000 150.100 TS 45 980 24 46
1996291N17168 1996 101 WP MM CARLO 1996-10-25 21:00:00 TS 34.3687 151.297 main 955 955 PPPP__________ WP331996 34.3567 151.322 55 0 34.3500 151.422 4 47 987 0 9 200 200 34.3192 151.315 2 41 992 34.4489 151.127 TS 42 987 25 48
1996291N17168 1996 101 WP MM CARLO 1996-10-26 00:00:00 TS 35.2000 152.447 45 990 tokyo main 1025 1025 OOOO__________ jtwc_wp WP331996 35.1000 152.300 55 0 35.2000 152.700 3 45 990 0 9 200 200 0 35.2000 152.500 2 38 995 35.3000 152.300 TS 40 994 25 48
1996291N17168 1996 101 WP MM CARLO 1996-10-26 03:00:00 TS 36.0624 153.617 main 1048 1045 PPPP__________ WP331996 35.8975 153.271 55 0 36.0913 153.917 3 45 991 0 9 275 175 36.1751 153.730 2 36 996 36.1420 153.607 TS 37 996 26 48
1996291N17168 1996 101 WP MM CARLO 1996-10-26 06:00:00 TS 36.9091 154.809 45 992 tokyo main 1054 1026 OOOO__________ jtwc_wp WP331996 36.7000 154.400 55 0 37.0000 155.100 3 45 992 0 2 350 150 0 37.2000 155.000 2 34 998 37.0000 155.000 TS 35 998 25 51
1996291N17168 1996 101 WP MM CARLO 1996-10-26 09:00:00 TS 37.6707 156.076 main 1025 1018 PP_P__________ WP331996 37.4427 155.828 52 0 37.9046 156.252 3 994 0 2 2 37.8928 156.396 TS 32 999 26 55
1996291N17168 1996 101 WP MM CARLO 1996-10-26 12:00:00 TS 38.4000 157.467 996 tokyo main 1025 1021 OO_O__________ jtwc_wp WP331996 38.2000 157.400 50 0 38.8000 157.400 2 996 0 0 0 38.8000 157.800 TD 30 1000 26 59
1996291N17168 1996 101 WP MM CARLO 1996-10-26 15:00:00 NR 39.0109 158.947 main 1047 1044 P_____________ WP331996 39.0109 158.947 47 0 2 0 0 TD 28 58
1996291N17168 1996 101 WP MM CARLO 1996-10-26 18:00:00 NR 39.9000 160.500 main 1068 1067 O_____________ jtwc_wp WP331996 39.9000 160.500 45 0 30 52
1996291N17168 1996 101 WP MM CARLO 1996-10-26 21:00:00 NR 40.8788 162.042 main 1095 1095 P_____________ WP331996 40.8788 162.042 42 0 31 50
1996291N17168 1996 101 WP MM CARLO 1996-10-27 00:00:00 NR 41.9000 163.600 main 1094 O_____________ jtwc_wp WP331996 41.9000 163.600 40 0 31 49

Digital Typhoon Data and Search

About IBTrACS Database

This database is a web-friendly format of International Best Track Archive for Climate Stewardship (IBTrACS), a global best track data archive curated by NOAA dating back to 1842.

Updated: 2021-10-08